Time;durP1;ratioP1;P1;durP2;ratioP2;P2;SDS_P1;SDS_P2;PMS_P1;PMS_P2;Temp;Humidity;BMP_temperature;BMP_pressure;BME280_temperature;BME280_humidity;BME280_pressure;Samples;Min_cycle;Max_cycle;Signal;HPM_P1;HPM_P2
2022/06/26 00:01:18;;;;;;;8.27;6.43;;;21.20;99.90;;;;;;5046949;28;20776;-54
2022/06/26 00:03:45;;;;;;;8.57;6.17;;;21.20;99.90;;;;;;5054168;28;20451;-51
2022/06/26 00:06:13;;;;;;;16.60;6.93;;;21.20;99.90;;;;;;5045393;28;20708;-52
2022/06/26 00:08:46;;;;;;;8.13;7.13;;;21.10;99.90;;;;;;5038743;28;20777;-52
2022/06/26 00:11:13;;;;;;;7.60;6.90;;;21.00;99.90;;;;;;5046452;28;20805;-52
2022/06/26 00:13:41;;;;;;;7.20;6.60;;;20.90;99.90;;;;;;5049261;28;20440;-52
2022/06/26 00:16:08;;;;;;;9.47;6.87;;;20.90;99.90;;;;;;5049848;28;20791;-46
2022/06/26 00:18:35;;;;;;;9.10;6.70;;;20.90;99.90;;;;;;5048386;28;20462;-53
2022/06/26 00:21:03;;;;;;;10.53;5.87;;;20.80;99.90;;;;;;5051504;28;20446;-52
2022/06/26 00:23:30;;;;;;;8.00;7.30;;;20.70;99.90;;;;;;5047827;28;20781;-52
2022/06/26 00:25:57;;;;;;;9.57;8.37;;;20.80;99.90;;;;;;5052402;28;20441;-50
2022/06/26 00:28:24;;;;;;;8.10;7.30;;;20.80;99.90;;;;;;5047294;28;20416;-50
2022/06/26 00:30:51;;;;;;;8.40;7.60;;;20.70;99.90;;;;;;5049998;28;20474;-50
2022/06/26 00:33:19;;;;;;;9.50;7.17;;;20.70;99.90;;;;;;5048481;28;20579;-52
2022/06/26 00:35:49;;;;;;;8.73;7.73;;;20.50;99.90;;;;;;5039698;28;20651;-50
2022/06/26 00:38:16;;;;;;;8.27;7.50;;;20.50;99.90;;;;;;5049577;28;20452;-53
2022/06/26 00:40:43;;;;;;;9.57;8.70;;;20.60;99.90;;;;;;5047737;28;20408;-51
2022/06/26 00:43:10;;;;;;;9.77;8.87;;;20.40;99.90;;;;;;5052785;28;20423;-51
2022/06/26 00:45:40;;;;;;;10.10;8.73;;;20.30;99.90;;;;;;5052685;28;20770;-51
2022/06/26 00:48:07;;;;;;;9.73;8.77;;;20.00;99.90;;;;;;5053063;28;20441;-53
2022/06/26 00:50:35;;;;;;;9.23;7.90;;;20.00;99.90;;;;;;5053458;28;20411;-51
2022/06/26 00:53:04;;;;;;;8.53;7.70;;;20.10;99.90;;;;;;5052860;28;20418;-51
2022/06/26 00:55:31;;;;;;;8.43;7.63;;;20.30;99.90;;;;;;5052200;28;20440;-54
2022/06/26 00:58:01;;;;;;;8.33;7.53;;;20.30;99.90;;;;;;5052901;28;20483;-53
2022/06/26 01:00:29;;;;;;;11.13;8.80;;;20.30;99.90;;;;;;5052357;28;20404;-52
2022/06/26 01:02:56;;;;;;;8.93;8.03;;;20.30;99.90;;;;;;5046543;28;20416;-49
2022/06/26 01:05:23;;;;;;;8.57;7.77;;;20.20;99.90;;;;;;5044862;28;20774;-48
2022/06/26 01:07:51;;;;;;;8.73;7.83;;;20.20;99.90;;;;;;5055271;28;20531;-51
2022/06/26 01:10:18;;;;;;;11.07;8.70;;;20.20;99.90;;;;;;5053280;28;20420;-51
2022/06/26 01:12:46;;;;;;;9.57;8.67;;;20.20;99.90;;;;;;5050035;28;20437;-50
2022/06/26 01:15:13;;;;;;;9.40;8.50;;;20.10;99.90;;;;;;5054789;28;20438;-49
2022/06/26 01:17:40;;;;;;;8.73;8.00;;;20.10;99.90;;;;;;5050835;28;20415;-52
2022/06/26 01:20:09;;;;;;;13.70;10.03;;;20.10;99.90;;;;;;5055032;28;20407;-51
2022/06/26 01:22:36;;;;;;;9.13;8.23;;;20.10;99.90;;;;;;5051657;28;20444;-50
2022/06/26 01:25:04;;;;;;;9.20;8.43;;;20.00;99.90;;;;;;5049501;28;20567;-51
2022/06/26 01:27:39;;;;;;;9.33;8.63;;;20.00;99.90;;;;;;5051824;28;20777;-49
2022/06/26 01:30:07;;;;;;;9.97;9.00;;;19.90;99.90;;;;;;5051099;28;20416;-46
2022/06/26 01:32:34;;;;;;;8.90;8.00;;;20.00;99.90;;;;;;5057321;28;20458;-46
2022/06/26 01:35:02;;;;;;;15.40;10.23;;;19.90;99.90;;;;;;5050773;28;20444;-45
2022/06/26 01:37:29;;;;;;;10.87;9.77;;;19.90;99.90;;;;;;5052030;28;20441;-48
2022/06/26 01:39:56;;;;;;;10.80;9.20;;;19.80;99.90;;;;;;5052991;28;20685;-54
2022/06/26 01:42:23;;;;;;;12.60;9.83;;;19.80;99.90;;;;;;5050736;28;20431;-50
2022/06/26 01:44:50;;;;;;;11.20;9.97;;;19.80;99.90;;;;;;5052946;28;20467;-51
2022/06/26 01:47:17;;;;;;;10.77;9.50;;;19.70;99.90;;;;;;5051944;28;20407;-53
2022/06/26 01:49:45;;;;;;;10.27;9.27;;;19.60;99.90;;;;;;5036436;28;20467;-53
2022/06/26 01:52:12;;;;;;;11.13;10.10;;;19.60;99.90;;;;;;5053669;28;20420;-52
2022/06/26 01:54:39;;;;;;;10.50;9.50;;;19.60;99.90;;;;;;5050265;28;20458;-50
2022/06/26 01:57:06;;;;;;;12.80;9.53;;;19.60;99.90;;;;;;5052568;28;20447;-50
2022/06/26 01:59:33;;;;;;;11.30;10.20;;;19.60;99.90;;;;;;5048427;28;20816;-49
2022/06/26 02:02:00;;;;;;;12.43;10.97;;;19.50;99.90;;;;;;5052646;28;20716;-53
2022/06/26 02:04:28;;;;;;;12.10;9.40;;;19.50;99.90;;;;;;5051635;28;20416;-48
2022/06/26 02:06:55;;;;;;;15.63;9.43;;;19.50;99.90;;;;;;5052758;28;20625;-52
2022/06/26 02:15:14;;;;;;;11.70;10.70;;;19.40;99.90;;;;;;5013656;28;20433;-53
2022/06/26 02:17:41;;;;;;;11.40;10.17;;;19.40;99.90;;;;;;5052046;28;20419;-49
2022/06/26 02:20:09;;;;;;;10.47;9.47;;;19.40;99.90;;;;;;5054350;28;20526;-49
2022/06/26 02:22:36;;;;;;;11.70;10.40;;;19.40;99.90;;;;;;5050054;28;20526;-52
2022/06/26 02:25:06;;;;;;;14.57;13.17;;;19.30;99.90;;;;;;5054055;28;20518;-54
2022/06/26 02:27:33;;;;;;;17.27;15.47;;;19.30;99.90;;;;;;5050203;28;20460;-49
2022/06/26 02:30:01;;;;;;;15.40;13.30;;;19.30;99.90;;;;;;5048088;28;20444;-49
2022/06/26 02:32:28;;;;;;;13.90;12.50;;;19.30;99.90;;;;;;5055205;28;20418;-47
2022/06/26 02:34:55;;;;;;;14.83;13.53;;;19.30;99.90;;;;;;5048130;28;20476;-52
2022/06/26 02:37:22;;;;;;;12.70;11.50;;;19.20;99.90;;;;;;5048173;28;20494;-48
2022/06/26 02:39:49;;;;;;;13.53;12.23;;;19.20;99.90;;;;;;5050591;28;20462;-51
2022/06/26 02:42:16;;;;;;;20.33;17.40;;;19.30;99.90;;;;;;5046280;28;20651;-45
2022/06/26 02:44:44;;;;;;;17.53;14.57;;;19.20;99.90;;;;;;5036534;28;20508;-51
2022/06/26 02:47:30;;;;;;;14.03;12.63;;;19.20;99.90;;;;;;5049152;28;20402;-48
2022/06/26 02:49:57;;;;;;;16.37;14.70;;;19.30;99.90;;;;;;5045441;28;20418;-51
2022/06/26 02:52:24;;;;;;;15.33;13.80;;;19.20;99.90;;;;;;5042385;28;20791;-51
2022/06/26 02:54:51;;;;;;;14.73;13.23;;;19.40;99.90;;;;;;5051179;28;20435;-46
2022/06/26 02:57:18;;;;;;;13.43;12.03;;;19.40;99.90;;;;;;5050497;28;20629;-51
2022/06/26 02:59:48;;;;;;;13.37;12.07;;;19.40;99.90;;;;;;5052023;28;20462;-48
2022/06/26 03:02:16;;;;;;;10.67;9.67;;;19.30;99.90;;;;;;5051221;28;20415;-50
2022/06/26 03:04:43;;;;;;;11.77;10.77;;;19.40;99.90;;;;;;5051148;28;20445;-50
2022/06/26 03:07:11;;;;;;;12.83;11.70;;;19.40;99.90;;;;;;5050673;28;20409;-51
2022/06/26 03:09:41;;;;;;;12.87;11.70;;;19.50;99.90;;;;;;5050315;28;20445;-49
2022/06/26 03:12:09;;;;;;;13.47;12.00;;;19.40;99.90;;;;;;5051160;28;20433;-52
2022/06/26 03:14:39;;;;;;;14.10;12.70;;;19.50;99.90;;;;;;5050024;28;20483;-47
2022/06/26 03:17:06;;;;;;;15.73;14.07;;;19.50;99.90;;;;;;5050810;28;20457;-47
2022/06/26 03:19:34;;;;;;;14.80;13.20;;;19.40;99.90;;;;;;5040086;28;20481;-49
2022/06/26 03:22:01;;;;;;;13.60;12.30;;;19.20;99.90;;;;;;5050472;28;20414;-51
2022/06/26 03:24:28;;;;;;;13.83;12.43;;;19.10;99.90;;;;;;5049292;28;20419;-50
2022/06/26 03:26:56;;;;;;;13.70;11.70;;;19.30;99.90;;;;;;5050491;28;20699;-47
2022/06/26 03:29:24;;;;;;;13.77;12.37;;;19.70;99.90;;;;;;5050032;28;20415;-49
2022/06/26 03:31:52;;;;;;;12.70;10.60;;;20.00;99.90;;;;;;5051196;28;20491;-51
2022/06/26 03:34:22;;;;;;;12.37;11.10;;;20.40;99.90;;;;;;5050867;28;20495;-48
2022/06/26 03:36:49;;;;;;;11.73;10.50;;;20.90;99.90;;;;;;5041240;28;20425;-49
2022/06/26 03:39:16;;;;;;;11.40;10.40;;;21.40;99.90;;;;;;5050487;28;20452;-52
2022/06/26 03:41:57;;;;;;;10.80;9.90;;;21.90;99.90;;;;;;5049116;28;20472;-52
2022/06/26 03:44:26;;;;;;;10.00;9.00;;;22.50;99.90;;;;;;5049929;28;20481;-48
2022/06/26 03:46:54;;;;;;;9.33;8.43;;;23.30;99.90;;;;;;5050692;28;20459;-48
2022/06/26 03:49:22;;;;;;;10.33;9.43;;;23.70;99.90;;;;;;5050448;28;20594;-49
2022/06/26 03:51:50;;;;;;;10.10;9.13;;;23.70;99.90;;;;;;5043782;28;20688;-53
2022/06/26 03:54:18;;;;;;;9.63;8.83;;;23.60;99.90;;;;;;5049556;28;20469;-51
2022/06/26 03:56:45;;;;;;;8.97;8.13;;;23.50;99.90;;;;;;5046833;28;20432;-54
2022/06/26 03:59:12;;;;;;;11.67;10.43;;;23.30;99.90;;;;;;5053575;28;20838;-49
2022/06/26 04:01:40;;;;;;;9.53;8.73;;;23.30;99.90;;;;;;5047334;28;20562;-52
2022/06/26 04:04:07;;;;;;;12.40;10.57;;;23.00;99.90;;;;;;5041921;28;20409;-51
2022/06/26 04:06:34;;;;;;;12.70;11.57;;;22.90;99.90;;;;;;5052428;28;20511;-50
2022/06/26 04:09:03;;;;;;;14.10;12.70;;;22.90;99.90;;;;;;5046841;28;20434;-52
2022/06/26 04:11:30;;;;;;;13.60;12.30;;;22.60;99.90;;;;;;5054078;28;20440;-52
2022/06/26 04:13:57;;;;;;;14.47;12.97;;;22.40;99.90;;;;;;5046376;28;20633;-48
2022/06/26 04:16:25;;;;;;;13.00;11.80;;;22.30;99.90;;;;;;5053918;28;20476;-49
2022/06/26 04:18:52;;;;;;;11.83;10.73;;;22.30;99.90;;;;;;5046433;28;20486;-48
2022/06/26 04:21:19;;;;;;;11.93;10.83;;;22.30;99.90;;;;;;5046873;28;20433;-49
2022/06/26 04:23:46;;;;;;;12.80;11.50;;;22.10;99.90;;;;;;5040977;28;20444;-50
2022/06/26 04:26:13;;;;;;;12.53;11.43;;;21.90;99.90;;;;;;5046760;28;20431;-48
2022/06/26 04:28:43;;;;;;;15.00;13.07;;;21.70;99.90;;;;;;5053544;28;20410;-51
2022/06/26 04:31:10;;;;;;;11.63;10.63;;;21.80;99.90;;;;;;5046807;28;20437;-48
2022/06/26 04:33:37;;;;;;;12.20;11.00;;;21.90;99.90;;;;;;5054895;28;20756;-48
2022/06/26 04:36:04;;;;;;;11.83;10.83;;;22.20;99.90;;;;;;5046452;28;20446;-47
2022/06/26 04:38:31;;;;;;;11.70;10.67;;;22.30;99.90;;;;;;5048181;28;20411;-49
2022/06/26 04:41:31;;;;;;;16.00;14.50;;;22.30;99.90;;;;;;5050659;28;20484;-51
2022/06/26 04:43:46;;;;;;;14.60;11.60;;;22.30;99.90;;;;;;5050325;28;20457;-51
2022/06/26 04:46:13;;;;;;;11.37;10.47;;;22.40;99.90;;;;;;5049361;28;20466;-49
2022/06/26 04:48:40;;;;;;;10.93;9.80;;;22.50;99.90;;;;;;5049052;28;20727;-52
2022/06/26 04:51:07;;;;;;;11.87;10.67;;;22.60;99.90;;;;;;5051076;28;20445;-49
2022/06/26 04:53:34;;;;;;;13.47;10.50;;;22.70;99.90;;;;;;5041078;28;20440;-49
2022/06/26 04:56:03;;;;;;;12.40;10.10;;;22.80;99.90;;;;;;5049946;28;20747;-52
2022/06/26 04:58:30;;;;;;;9.40;8.60;;;23.00;99.90;;;;;;5048913;28;20486;-51
2022/06/26 05:00:57;;;;;;;9.30;8.43;;;23.10;99.90;;;;;;5049553;28;20562;-48
2022/06/26 05:03:24;;;;;;;10.33;8.10;;;23.10;99.90;;;;;;5049154;28;20432;-48
2022/06/26 05:05:51;;;;;;;15.93;8.80;;;23.10;99.90;;;;;;5048574;28;20460;-47
2022/06/26 05:08:18;;;;;;;10.30;9.40;;;23.10;99.90;;;;;;5049325;28;20486;-51
2022/06/26 05:10:45;;;;;;;8.50;7.80;;;23.20;99.90;;;;;;5048262;28;20458;-53
2022/06/26 05:13:12;;;;;;;11.83;7.53;;;23.50;99.90;;;;;;5049295;28;20439;-47
2022/06/26 05:15:39;;;;;;;8.13;7.53;;;23.70;99.90;;;;;;5045528;28;20824;-53
2022/06/26 05:18:07;;;;;;;9.67;8.87;;;23.60;99.90;;;;;;5046136;28;20440;-54
2022/06/26 05:20:34;;;;;;;9.10;8.27;;;23.60;99.90;;;;;;5042841;28;20451;-53
2022/06/26 05:23:01;;;;;;;11.73;7.57;;;23.80;99.90;;;;;;5040881;28;20750;-53
2022/06/26 05:25:28;;;;;;;8.57;7.87;;;24.00;99.90;;;;;;5047633;28;20452;-50
2022/06/26 05:27:56;;;;;;;10.30;9.30;;;24.00;99.90;;;;;;5038544;28;20480;-50
2022/06/26 05:30:23;;;;;;;9.60;8.07;;;24.20;99.90;;;;;;5050309;28;20662;-48
2022/06/26 05:32:50;;;;;;;9.63;8.83;;;24.20;99.90;;;;;;5043283;28;20816;-47
2022/06/26 05:35:17;;;;;;;10.03;9.23;;;24.30;99.90;;;;;;5049442;28;20472;-48
2022/06/26 05:37:44;;;;;;;11.60;8.27;;;24.30;99.90;;;;;;5041540;28;20744;-52
2022/06/26 05:40:12;;;;;;;8.17;7.40;;;24.30;99.90;;;;;;5049440;28;20856;-49
2022/06/26 05:42:39;;;;;;;10.67;9.67;;;24.40;99.90;;;;;;5044282;28;20436;-50
2022/06/26 05:45:07;;;;;;;8.57;7.87;;;24.60;99.90;;;;;;5043362;28;20515;-48
2022/06/26 05:47:34;;;;;;;9.23;8.20;;;24.70;99.90;;;;;;5051872;28;20507;-48
2022/06/26 05:50:02;;;;;;;8.23;7.53;;;24.90;99.90;;;;;;5044152;28;20444;-51
2022/06/26 05:52:29;;;;;;;9.33;8.40;;;25.10;99.90;;;;;;5040211;28;20431;-48
2022/06/26 05:54:56;;;;;;;11.63;8.83;;;25.40;99.90;;;;;;5054106;28;20496;-50
2022/06/26 05:57:25;;;;;;;8.00;7.30;;;25.50;99.90;;;;;;5048849;28;20753;-52
2022/06/26 05:59:52;;;;;;;7.97;7.30;;;25.60;99.90;;;;;;5055757;28;20587;-51
2022/06/26 06:02:19;;;;;;;9.87;8.97;;;26.00;99.90;;;;;;5048715;28;20621;-50
2022/06/26 06:04:46;;;;;;;8.07;7.27;;;26.10;99.90;;;;;;5035665;28;20472;-52
2022/06/26 06:07:18;;;;;;;9.90;9.07;;;26.30;99.90;;;;;;5053923;28;20669;-53
2022/06/26 06:09:45;;;;;;;9.43;8.63;;;26.40;99.90;;;;;;5047567;28;20635;-52
2022/06/26 06:12:12;;;;;;;9.77;8.77;;;26.50;99.90;;;;;;5039150;28;20531;-52
2022/06/26 06:14:40;;;;;;;9.60;8.80;;;26.70;99.90;;;;;;5035296;28;20781;-50
2022/06/26 06:19:52;;;;;;;8.87;7.97;;;26.70;99.90;;;;;;5032069;28;20832;-48
2022/06/26 06:22:19;;;;;;;9.17;7.67;;;26.80;99.90;;;;;;5045789;28;20442;-52
2022/06/26 06:24:47;;;;;;;9.90;8.60;;;27.10;99.90;;;;;;5046658;28;20479;-50
2022/06/26 06:27:14;;;;;;;10.53;8.40;;;27.70;99.90;;;;;;5041769;28;20508;-52
2022/06/26 06:29:41;;;;;;;17.60;8.23;;;27.90;99.90;;;;;;5045720;28;20495;-51
2022/06/26 06:32:08;;;;;;;10.10;9.20;;;27.70;99.90;;;;;;5044143;28;20445;-53
2022/06/26 06:34:35;;;;;;;7.67;7.07;;;27.60;99.90;;;;;;5048051;28;20437;-50
2022/06/26 06:37:02;;;;;;;7.83;7.13;;;27.80;99.90;;;;;;5045686;28;20459;-50
2022/06/26 06:39:30;;;;;;;8.70;8.00;;;28.10;99.90;;;;;;5037857;28;20520;-49
2022/06/26 06:41:57;;;;;;;8.50;7.80;;;28.40;99.90;;;;;;5024141;28;20510;-52
2022/06/26 06:44:24;;;;;;;9.00;8.10;;;28.50;99.90;;;;;;5030765;28;20485;-54
2022/06/26 06:46:51;;;;;;;9.90;8.63;;;28.50;99.90;;;;;;5034712;28;20507;-52
2022/06/26 06:49:18;;;;;;;9.60;8.77;;;28.70;99.90;;;;;;5031101;28;20470;-50
2022/06/26 06:51:45;;;;;;;9.70;7.53;;;29.20;99.90;;;;;;5037452;28;20479;-46
2022/06/26 06:54:12;;;;;;;13.93;9.60;;;29.90;99.90;;;;;;5033102;28;20438;-51
2022/06/26 06:56:39;;;;;;;10.70;8.33;;;30.10;99.90;;;;;;5035339;28;20513;-48
2022/06/26 06:59:06;;;;;;;9.93;9.10;;;30.20;99.90;;;;;;5031592;28;20437;-52
2022/06/26 07:01:41;;;;;;;10.00;8.83;;;30.70;99.90;;;;;;5045166;28;20437;-49
2022/06/26 07:04:08;;;;;;;8.73;8.03;;;31.40;99.90;;;;;;5027857;28;20765;-48
2022/06/26 07:06:36;;;;;;;9.33;8.53;;;31.80;99.90;;;;;;5047483;28;20895;-49
2022/06/26 07:09:03;;;;;;;8.63;7.93;;;33.00;99.90;;;;;;5040276;28;20473;-48
2022/06/26 07:11:30;;;;;;;10.20;7.90;;;34.60;96.40;;;;;;5043870;28;20575;-48
2022/06/26 07:13:58;;;;;;;9.00;8.30;;;35.40;92.90;;;;;;5045825;28;20435;-52
2022/06/26 07:16:25;;;;;;;8.07;7.47;;;35.60;90.40;;;;;;5046841;28;20507;-54
2022/06/26 07:18:53;;;;;;;8.83;8.03;;;35.10;89.80;;;;;;5050282;28;20445;-52
2022/06/26 07:21:20;;;;;;;7.33;6.73;;;35.30;88.30;;;;;;5032194;28;20478;-51
2022/06/26 07:23:47;;;;;;;9.27;8.37;;;36.60;83.60;;;;;;5040222;28;20461;-52
2022/06/26 07:26:14;;;;;;;8.00;7.30;;;37.30;78.60;;;;;;5037744;28;20450;-51
2022/06/26 07:28:41;;;;;;;8.20;7.50;;;38.90;73.20;;;;;;5047937;28;20441;-52
2022/06/26 07:31:09;;;;;;;6.97;6.47;;;38.30;70.60;;;;;;5033343;28;20480;-54
2022/06/26 07:36:25;;;;;;;7.97;6.83;;;40.30;63.30;;;;;;5025431;28;20518;-50
2022/06/26 07:38:54;;;;;;;8.00;7.40;;;41.50;60.00;;;;;;5032321;28;20475;-52
2022/06/26 07:41:21;;;;;;;8.63;7.00;;;40.60;59.50;;;;;;5039868;28;20470;-46
2022/06/26 07:43:48;;;;;;;8.63;8.03;;;40.10;60.00;;;;;;5033226;28;20436;-50
2022/06/26 07:46:18;;;;;;;6.67;6.27;;;40.50;59.00;;;;;;5037595;28;20800;-52
2022/06/26 07:48:46;;;;;;;8.83;8.07;;;40.30;58.80;;;;;;5024265;28;20483;-51
2022/06/26 07:51:13;;;;;;;7.50;6.77;;;41.80;56.70;;;;;;5020114;28;20454;-51
2022/06/26 07:53:40;;;;;;;6.10;5.60;;;42.10;55.90;;;;;;5027899;28;20445;-50
2022/06/26 07:56:08;;;;;;;7.00;6.40;;;40.60;56.60;;;;;;5026534;28;20462;-52
2022/06/26 07:58:35;;;;;;;7.73;7.23;;;39.30;58.50;;;;;;5028583;28;20720;-49
2022/06/26 08:01:02;;;;;;;6.77;6.20;;;40.30;57.50;;;;;;5020121;28;20474;-54
2022/06/26 08:03:30;;;;;;;7.00;6.50;;;39.30;58.70;;;;;;5021801;28;20804;-55
2022/06/26 08:05:57;;;;;;;6.17;5.67;;;41.30;56.60;;;;;;5028400;28;20507;-48
2022/06/26 08:08:27;;;;;;;7.13;6.57;;;38.40;59.00;;;;;;5040470;28;20437;-49
2022/06/26 08:10:54;;;;;;;8.90;8.03;;;39.70;58.30;;;;;;5030126;28;20443;-53
2022/06/26 08:13:22;;;;;;;6.53;5.93;;;41.10;56.00;;;;;;5037749;28;20435;-49
2022/06/26 08:15:56;;;;;;;6.93;6.43;;;40.70;56.60;;;;;;5029439;28;20489;-51
2022/06/26 08:18:24;;;;;;;8.17;7.47;;;39.80;57.30;;;;;;5029597;28;20445;-51
2022/06/26 08:20:54;;;;;;;7.13;6.57;;;40.10;57.10;;;;;;5031415;28;20481;-51
2022/06/26 08:23:22;;;;;;;9.97;7.97;;;41.30;55.60;;;;;;5025181;28;20493;-51
2022/06/26 08:25:49;;;;;;;7.70;6.07;;;42.00;54.60;;;;;;5028438;28;20495;-52
2022/06/26 08:28:16;;;;;;;6.90;5.47;;;41.60;54.70;;;;;;5023127;28;20443;-49
2022/06/26 08:30:43;;;;;;;6.00;5.60;;;39.80;55.60;;;;;;5024922;28;20460;-51
2022/06/26 08:33:10;;;;;;;7.07;6.57;;;37.50;58.40;;;;;;5039949;28;20456;-50
2022/06/26 08:35:38;;;;;;;6.20;5.70;;;36.90;60.70;;;;;;5050267;28;20461;-52
2022/06/26 08:38:05;;;;;;;6.40;5.93;;;38.00;58.80;;;;;;5032792;28;20454;-51
2022/06/26 08:40:35;;;;;;;5.57;5.17;;;39.90;55.70;;;;;;5030225;28;20474;-53
2022/06/26 08:43:02;;;;;;;6.47;5.97;;;40.00;53.70;;;;;;5018161;28;20430;-53
2022/06/26 08:45:30;;;;;;;6.50;6.00;;;41.40;53.40;;;;;;5019733;28;20805;-54
2022/06/26 08:48:00;;;;;;;6.70;6.00;;;40.90;54.00;;;;;;5022439;28;20435;-49
2022/06/26 08:50:30;;;;;;;6.63;6.13;;;41.00;53.70;;;;;;5025359;28;20442;-50
2022/06/26 08:52:59;;;;;;;6.13;5.60;;;40.70;54.50;;;;;;5024882;28;20442;-49
2022/06/26 08:55:26;;;;;;;7.20;6.60;;;42.10;53.00;;;;;;5026089;28;20465;-49
2022/06/26 08:57:53;;;;;;;4.70;4.40;;;40.10;54.10;;;;;;5027284;28;20540;-53
2022/06/26 09:00:23;;;;;;;4.80;4.50;;;39.20;53.50;;;;;;5026712;28;20537;-47
2022/06/26 09:02:56;;;;;;;5.70;5.20;;;37.60;55.60;;;;;;5026554;28;20462;-53
2022/06/26 09:05:23;;;;;;;5.40;4.90;;;38.90;53.30;;;;;;5028690;28;20465;-54
2022/06/26 09:07:56;;;;;;;5.00;4.30;;;39.70;53.30;;;;;;5031760;28;20777;-48
2022/06/26 09:10:27;;;;;;;5.40;4.10;;;40.60;52.30;;;;;;5029071;28;20433;-51
2022/06/26 09:12:57;;;;;;;6.03;5.07;;;39.20;53.30;;;;;;5032319;28;20649;-48
2022/06/26 09:15:26;;;;;;;4.63;4.33;;;37.30;56.00;;;;;;5034698;28;20462;-51
2022/06/26 09:18:06;;;;;;;4.37;4.07;;;37.50;55.30;;;;;;5039250;28;20498;-49
2022/06/26 09:20:35;;;;;;;4.80;4.40;;;37.30;55.40;;;;;;5023682;28;20715;-48
2022/06/26 09:23:03;;;;;;;7.70;4.63;;;36.00;56.50;;;;;;5022729;28;20824;-50
2022/06/26 09:25:45;;;;;;;4.63;4.10;;;34.80;57.50;;;;;;5024197;28;20458;-47
2022/06/26 09:28:20;;;;;;;4.87;4.47;;;35.90;56.50;;;;;;5025841;28;20431;-52
2022/06/26 09:31:04;;;;;;;4.80;4.40;;;34.90;57.30;;;;;;5023171;28;20434;-50
2022/06/26 09:33:33;;;;;;;5.10;4.60;;;34.20;57.90;;;;;;5025545;28;20629;-50
2022/06/26 09:36:13;;;;;;;3.83;3.63;;;34.40;57.90;;;;;;5023138;28;20804;-50
2022/06/26 09:38:49;;;;;;;9.50;5.40;;;33.60;59.90;;;;;;5025511;28;20426;-50
2022/06/26 09:41:27;;;;;;;6.20;4.27;;;33.40;61.70;;;;;;5022736;28;21140;-50
2022/06/26 09:43:55;;;;;;;4.13;3.83;;;33.10;62.30;;;;;;5022632;28;20480;-49
2022/06/26 09:46:31;;;;;;;4.50;3.50;;;33.10;60.80;;;;;;5025706;28;20451;-47
2022/06/26 09:49:01;;;;;;;4.30;4.00;;;32.80;61.70;;;;;;5022650;28;20515;-48
2022/06/26 09:51:28;;;;;;;4.43;4.03;;;32.10;64.60;;;;;;5023279;28;20442;-49
2022/06/26 09:53:59;;;;;;;4.13;3.83;;;31.60;64.60;;;;;;5022419;28;20450;-46
2022/06/26 09:56:27;;;;;;;3.90;3.60;;;31.40;63.70;;;;;;5022535;28;20704;-48
2022/06/26 09:58:57;;;;;;;3.97;3.57;;;31.40;64.20;;;;;;5023226;28;20500;-54
2022/06/26 10:07:08;;;;;;;3.50;3.30;;;31.60;65.30;;;;;;5022374;28;20438;-49
2022/06/26 10:09:39;;;;;;;4.17;3.87;;;31.50;65.00;;;;;;5034552;28;20551;-46
2022/06/26 10:12:07;;;;;;;4.17;3.60;;;31.50;65.00;;;;;;5022213;28;20513;-49
2022/06/26 10:14:41;;;;;;;3.57;3.37;;;31.40;64.10;;;;;;5026238;28;20442;-47
2022/06/26 10:17:26;;;;;;;3.50;3.30;;;31.40;63.20;;;;;;5024729;28;21491;-51
2022/06/26 10:20:04;;;;;;;14.77;3.27;;;31.30;62.80;;;;;;5024989;28;20437;-50
2022/06/26 10:22:42;;;;;;;3.53;3.23;;;31.10;63.70;;;;;;5034498;28;20489;-51
2022/06/26 10:25:43;;;;;;;4.37;4.03;;;31.20;64.90;;;;;;5034496;28;20653;-48
2022/06/26 10:28:18;;;;;;;3.33;2.73;;;31.30;65.60;;;;;;5030944;28;20441;-51
2022/06/26 10:30:45;;;;;;;3.90;3.60;;;31.30;63.10;;;;;;5038211;28;20617;-52
2022/06/26 10:33:18;;;;;;;8.63;4.17;;;31.30;65.40;;;;;;5037911;28;20780;-46
2022/06/26 10:35:51;;;;;;;3.90;3.60;;;31.40;65.00;;;;;;5046281;28;20515;-47
2022/06/26 10:38:23;;;;;;;3.87;3.57;;;31.60;65.60;;;;;;5045643;28;20479;-52
2022/06/26 10:43:57;;;;;;;4.50;4.10;;;31.80;64.80;;;;;;5023693;28;20442;-50
2022/06/26 10:46:24;;;;;;;4.00;3.60;;;32.00;64.30;;;;;;5029031;28;20470;-49
2022/06/26 10:49:00;;;;;;;3.90;3.60;;;32.00;65.00;;;;;;5025630;28;20477;-51
2022/06/26 10:51:30;;;;;;;4.03;3.70;;;32.10;64.60;;;;;;5025739;28;20437;-49
2022/06/26 10:53:57;;;;;;;4.23;3.83;;;32.10;63.90;;;;;;5020814;28;20442;-46
2022/06/26 10:56:24;;;;;;;4.87;3.33;;;32.20;64.20;;;;;;5020191;28;20458;-53
2022/06/26 10:59:01;;;;;;;3.77;3.47;;;32.40;64.20;;;;;;5030115;28;20436;-48
2022/06/26 11:01:32;;;;;;;3.60;3.40;;;32.30;63.70;;;;;;5032572;28;20476;-52
2022/06/26 11:04:05;;;;;;;3.90;3.60;;;32.30;63.60;;;;;;5027561;28;20665;-47
2022/06/26 11:06:42;;;;;;;3.90;3.70;;;32.10;63.60;;;;;;5033254;28;20489;-49
2022/06/26 11:09:09;;;;;;;3.87;3.57;;;32.20;64.10;;;;;;5036562;28;20438;-46
2022/06/26 11:11:37;;;;;;;3.60;3.40;;;32.00;65.40;;;;;;5048902;28;20486;-53
2022/06/26 11:14:08;;;;;;;4.07;3.77;;;32.10;65.40;;;;;;5044823;28;20441;-51
2022/06/26 11:16:38;;;;;;;3.70;3.40;;;31.80;64.90;;;;;;5043725;28;20474;-51
2022/06/26 11:19:19;;;;;;;3.90;3.60;;;31.80;65.10;;;;;;5046960;28;20437;-52
2022/06/26 11:21:46;;;;;;;3.20;3.00;;;31.70;65.80;;;;;;5032628;28;20542;-54
2022/06/26 11:24:13;;;;;;;4.30;3.90;;;31.50;66.10;;;;;;5048182;28;20429;-51
2022/06/26 11:26:40;;;;;;;4.57;4.10;;;31.70;65.90;;;;;;5041562;28;20496;-47
2022/06/26 11:29:11;;;;;;;4.37;4.03;;;31.80;65.50;;;;;;5020225;28;20512;-48
2022/06/26 11:31:38;;;;;;;3.73;3.47;;;31.90;64.30;;;;;;5041523;28;20641;-53
2022/06/26 11:34:11;;;;;;;5.33;4.17;;;32.20;64.80;;;;;;5048512;28;20540;-48
2022/06/26 11:36:56;;;;;;;6.30;4.00;;;32.00;64.50;;;;;;5042321;28;20473;-50
2022/06/26 11:39:37;;;;;;;3.53;3.23;;;32.00;64.10;;;;;;5034284;28;20456;-53
2022/06/26 11:42:22;;;;;;;4.20;3.80;;;32.20;64.30;;;;;;5028454;28;20533;-50
2022/06/26 11:44:50;;;;;;;5.13;4.27;;;32.30;63.80;;;;;;5027688;28;20749;-52
2022/06/26 11:47:19;;;;;;;4.10;3.70;;;32.30;64.70;;;;;;5027391;28;20695;-51
2022/06/26 11:49:46;;;;;;;4.37;3.97;;;32.10;65.40;;;;;;5033130;28;20612;-48
2022/06/26 11:52:14;;;;;;;4.00;3.70;;;32.20;65.90;;;;;;5035447;28;20439;-52
2022/06/26 11:54:43;;;;;;;3.40;3.20;;;32.40;65.60;;;;;;5051276;28;20449;-48
2022/06/26 11:57:11;;;;;;;3.83;3.53;;;32.60;65.80;;;;;;5028581;28;20442;-50
2022/06/26 11:59:43;;;;;;;4.20;3.73;;;32.60;63.40;;;;;;5029038;28;20816;-53
2022/06/26 12:02:24;;;;;;;6.20;4.10;;;32.50;63.70;;;;;;5026541;28;20486;-46
2022/06/26 12:04:56;;;;;;;3.80;3.50;;;32.60;64.20;;;;;;5025498;28;20468;-50
2022/06/26 12:07:24;;;;;;;3.87;3.57;;;32.60;63.00;;;;;;5027931;28;20489;-48
2022/06/26 12:09:51;;;;;;;3.70;3.50;;;32.10;61.50;;;;;;5030733;28;20448;-46
2022/06/26 12:12:19;;;;;;;4.30;4.00;;;31.90;64.70;;;;;;5027495;28;20506;-50
2022/06/26 12:14:51;;;;;;;4.43;3.43;;;31.90;64.80;;;;;;5035113;28;20492;-51
2022/06/26 12:17:26;;;;;;;3.87;3.57;;;31.80;62.20;;;;;;5035378;28;20450;-50
2022/06/26 12:19:53;;;;;;;4.13;3.83;;;32.00;63.70;;;;;;5024691;28;20631;-52
2022/06/26 12:22:28;;;;;;;4.60;4.20;;;31.90;65.20;;;;;;5024203;28;20478;-50
2022/06/26 12:24:56;;;;;;;4.70;4.40;;;31.70;66.70;;;;;;5037640;28;20671;-51
2022/06/26 12:27:37;;;;;;;5.07;4.67;;;31.60;68.30;;;;;;5038439;28;20760;-52
2022/06/26 12:30:17;;;;;;;5.13;4.83;;;31.80;69.00;;;;;;5040393;28;20486;-54
2022/06/26 12:32:59;;;;;;;4.77;4.37;;;32.10;67.00;;;;;;5038974;28;20436;-50
2022/06/26 12:35:27;;;;;;;4.30;4.00;;;32.00;66.10;;;;;;5028657;28;20520;-47
2022/06/26 12:37:55;;;;;;;4.23;3.93;;;32.00;66.50;;;;;;5043972;28;20668;-48
2022/06/26 12:40:23;;;;;;;5.10;4.70;;;32.30;65.70;;;;;;5046687;28;20551;-48
2022/06/26 12:42:50;;;;;;;4.10;3.80;;;32.50;65.10;;;;;;5050394;28;20485;-50
2022/06/26 12:45:17;;;;;;;3.47;3.27;;;32.40;65.10;;;;;;5048094;28;20457;-50
2022/06/26 12:47:45;;;;;;;6.00;3.80;;;32.20;65.50;;;;;;5049361;28;20440;-54
2022/06/26 12:50:15;;;;;;;5.43;4.93;;;32.10;65.40;;;;;;5050944;28;20815;-54
2022/06/26 12:52:42;;;;;;;4.70;4.30;;;32.30;64.70;;;;;;5045093;28;20451;-54
2022/06/26 12:55:10;;;;;;;4.90;4.50;;;32.40;62.90;;;;;;5058185;28;20821;-49
2022/06/26 12:57:37;;;;;;;6.77;6.00;;;32.50;64.00;;;;;;5053249;28;20428;-49
2022/06/26 13:00:06;;;;;;;4.37;4.07;;;32.70;65.10;;;;;;5055568;28;20544;-51
2022/06/26 13:02:34;;;;;;;4.00;3.77;;;32.70;65.60;;;;;;5050255;28;20493;-50
2022/06/26 13:05:01;;;;;;;4.20;3.90;;;33.10;65.20;;;;;;5049372;28;20476;-50
2022/06/26 13:07:28;;;;;;;5.53;4.30;;;33.20;64.40;;;;;;5043353;28;20433;-53
2022/06/26 13:09:57;;;;;;;4.40;4.10;;;33.30;64.20;;;;;;5046044;28;20432;-48